首页
METAR-TAF:

METAR-TAF

机场 :

奥斯滕德, 比利时

纬度: 51-12N, 经度: 002-52E, 海拔: 4米

当前天气观测

该预报发布于11分钟前的17:20 UTC
风速4节,风向东南
温度 2°C
湿度 87%
气压 1018 hPa
能见度10公里或以上
少量云层高于3400英尺

METAR: EBOS 191720Z 13004KT 9999 FEW034 02/M00 Q1018 NOSIG

时间: 18:31 (17:31 UTC)

预报

该预报发布于18分钟前的17:13 UTC
预报有效从19日的 18点(UTC)到 20日的 24点(UTC)
风速4节,风向南转南东
能見度: 7000
少量云层高于3000英尺
成为
从 19日的 20点(UTC)到 19日的 22点(UTC)
能見度: 2000
轻雾
几率 40% :
短暂存在
从 19日的 23点(UTC)到 20日的 08点(UTC)
能見度: 0300
多云层高于100英尺
冻雾
成为
从 20日的 08点(UTC)到 20日的 10点(UTC)
能见度10公里或以上

TAF: EBOS 191713Z 1918/2024 16004KT 7000 FEW030 BECMG 1920/1922 2000 BR PROB40 TEMPO 1923/2008 0300 FZFG BKN001 BECMG 2008/2010 9999 NSW

超过4000个机场的气象观测和天气预报(METAR&TAF报告)。

可查询的气象台以黄色和红色小点在地图上表示。

将鼠标移到小点上方,可查看气象台名称。

然后点击查看天气观测和预报。

如需切换地图:点击带黑十字的绿色按钮放大地图;点击带横线的绿色按钮缩小地图;或者点击绿色箭头查看邻近地区的地图。


METAR-TAF: